Latest Weather Observations for Munglinup West

IDW60801

Issued at 11:23 pm WST Monday 9 December 2019 (issued every 10 minutes, with the page automatically refreshed every 10 minutes)

About weather observations | Map of weather stations | Latest weather observations for WA | Other Formats
Station Details ID: 012044 Name: MUNGLINUP WEST Lat: -33.55 Lon: 120.70 Height: 220.0 m
Data from the previous 72 hours. | See also: Recent months at Munglinup West
Date/Time
WST
Temp
°C
App
Temp
°C
Dew
Point
°C
Rel
Hum
%
Delta-T
°C
Wind Press
QNH
hPa
Press
MSL
hPa
Rain since
9am
mm
Dir  Spd
km/h
Gust
km/h
Spd
kts
Gust
kts
09/11:00pm 11.8 - - - - E 19 24 10 13 1023.8 1023.2 0.0
09/10:30pm 11.9 - - - - ESE 19 22 10 12 1024.2 1023.6 0.0
09/10:00pm 11.3 - - - - ESE 13 17 7 9 1024.3 1023.7 0.0
09/09:30pm 11.1 - - - - SE 15 19 8 10 1024.5 1023.8 0.0
09/09:00pm 12.0 - - - - ESE 15 20 8 11 1024.0 1023.4 0.0
09/08:30pm 12.7 - - - - ESE 17 24 9 13 1023.8 1023.2 0.0
09/08:00pm 13.3 - - - - SE 19 24 10 13 1023.3 1022.6 0.0
09/07:30pm 14.1 - - - - SE 20 26 11 14 1023.1 1022.4 0.0
09/07:00pm 15.0 - - - - SE 20 28 11 15 1022.9 1022.2 0.0
09/06:30pm 16.8 - - - - SE 24 32 13 17 1022.5 1021.8 0.0
09/06:00pm 18.3 - - - - SE 26 33 14 18 1022.2 1021.5 0.0
09/05:30pm 19.9 - - - - SE 24 32 13 17 1022.0 1021.3 0.0
09/05:00pm 21.5 - - - - SE 24 32 13 17 1021.5 1020.8 0.0
09/04:30pm 22.3 - - - - SE 22 30 12 16 1021.2 1020.5 0.0
09/04:00pm 24.2 - - - - SE 17 26 9 14 1021.2 1020.5 0.0
09/03:30pm 24.2 - - - - SE 20 28 11 15 1021.1 1020.4 0.0
09/03:00pm 24.7 - - - - SE 19 26 10 14 1021.4 1020.7 0.0
09/02:30pm 24.5 - - - - SE 15 20 8 11 1021.6 1020.9 0.0
09/02:00pm 24.8 - - - - SE 17 26 9 14 1021.8 1021.1 0.0
09/01:30pm 24.4 - - - - SE 17 32 9 17 1022.1 1021.4 0.0
09/01:00pm 24.7 - - - - SE 17 28 9 15 1022.5 1021.8 0.0
09/12:30pm 24.4 - - - - SE 17 28 9 15 1022.7 1022.0 0.0
09/12:00pm 24.0 - - - - SSE 13 39 7 21 1023.0 1022.3 0.0
09/11:30am 24.0 - - - - SE 13 26 7 14 1023.2 1022.5 0.0
09/11:00am 23.0 - - - - SE 13 22 7 12 1023.5 1022.9 0.0
09/10:30am 21.9 - - - - SSE 15 24 8 13 1023.7 1023.1 0.0
09/10:00am 20.9 - - - - SE 9 17 5 9 1023.9 1023.3 0.0
09/09:30am 19.9 - - - - ESE 11 24 6 13 1024.1 1023.5 0.0
09/09:00am 19.3 - - - - E 7 17 4 9 1024.1 1023.5 0.0
09/08:30am 18.4 - - - - E 9 17 5 9 1024.3 1023.7 0.0
09/08:00am 17.5 - - - - ESE 11 20 6 11 1024.2 1023.6 0.0
09/07:30am 17.4 - - - - ESE 7 17 4 9 1024.1 1023.5 0.0
09/07:00am 15.9 - - - - E 7 13 4 7 1024.1 1023.5 0.0
09/06:30am 15.4 - - - - E 6 9 3 5 1023.7 1023.1 0.0
09/06:00am 13.8 - - - - ENE 6 7 3 4 1023.4 1022.7 0.0
09/05:30am 11.8 - - - - ENE 7 7 4 4 1023.1 1022.4 0.0
09/05:00am 9.3 - - - - E 7 9 4 5 1022.7 1022.0 0.0
09/04:30am 8.9 - - - - E 6 7 3 4 1022.4 1021.7 0.0
09/04:00am 10.0 - - - - E 9 9 5 5 1022.1 1021.4 0.0
09/03:30am 8.5 - - - - ESE 4 6 2 3 1022.2 1021.5 0.0
09/03:00am 9.0 - - - - SSE 6 7 3 4 1022.3 1021.6 0.0
09/02:30am 9.1 - - - - SE 6 6 3 3 1022.3 1021.6 0.0
09/02:00am 9.0 - - - - SE 6 7 3 4 1022.2 1021.5 0.0
09/01:30am 9.5 - - - - ESE 6 6 3 3 1022.1 1021.4 0.0
09/01:00am 9.4 - - - - SSE 6 6 3 3 1022.1 1021.4 0.0
09/12:30am 9.5 - - - - SSE 7 9 4 5 1022.0 1021.3 0.0
09/12:00am 9.9 - - - - SE 11 11 6 6 1021.8 1021.1 0.0
 
Date/Time
WST
Temp
°C
App
Temp
°C
Dew
Point
°C
Rel
Hum
%
Delta-T
°C
Wind Press
QNH
hPa
Press
MSL
hPa
Rain since
9am
mm
Dir  Spd
km/h
Gust
km/h
Spd
kts
Gust
kts
08/11:30pm 10.0 - - - - ESE 9 9 5 5 1022.0 1021.3 0.0
08/11:00pm 10.1 - - - - ESE 9 11 5 6 1022.2 1021.5 0.0
08/10:30pm 10.4 - - - - ESE 7 9 4 5 1022.3 1021.6 0.0
08/10:00pm 10.4 - - - - SE 7 9 4 5 1022.6 1021.9 0.0
08/09:30pm 10.8 - - - - SE 9 9 5 5 1022.7 1022.0 0.0
08/09:00pm 11.5 - - - - ESE 9 9 5 5 1022.7 1022.0 0.0
08/08:30pm 11.8 - - - - SE 9 9 5 5 1022.7 1022.0 0.0
08/08:00pm 13.5 - - - - SSE 11 15 6 8 1022.4 1021.7 0.0
08/07:30pm 14.7 - - - - S 13 19 7 10 1022.3 1021.6 0.0
08/07:00pm 14.8 - - - - S 15 24 8 13 1021.8 1021.1 0.0
08/06:30pm 15.5 - - - - S 17 26 9 14 1021.3 1020.6 0.0
08/06:00pm 16.8 - - - - S 20 32 11 17 1020.8 1020.1 0.0
08/05:30pm 17.7 - - - - S 20 35 11 19 1020.2 1019.5 0.0
08/05:00pm 18.8 - - - - SSW 24 33 13 18 1019.8 1019.1 0.0
08/04:30pm 18.3 - - - - SSW 26 37 14 20 1019.3 1018.6 0.0
08/04:00pm 18.5 - - - - SSW 28 39 15 21 1019.2 1018.5 0.0
08/03:30pm 19.2 - - - - S 30 44 16 24 1019.0 1018.3 0.0
08/03:00pm 20.1 - - - - S 22 33 12 18 1018.8 1018.1 0.0
08/02:30pm 19.7 - - - - S 22 32 12 17 1018.8 1018.1 0.0
08/02:00pm 19.9 - - - - SSW 26 39 14 21 1018.7 1018.0 0.0
08/01:30pm 19.0 - - - - SSW 24 35 13 19 1018.7 1018.0 0.0
08/01:00pm 20.7 - - - - SSW 30 43 16 23 1018.2 1017.5 0.0
08/12:30pm 20.8 - - - - SSW 28 37 15 20 1018.1 1017.4 0.0
08/12:00pm 20.8 - - - - SSW 28 39 15 21 1018.0 1017.3 0.0
08/11:30am 21.7 - - - - SSW 20 35 11 19 1017.9 1017.2 0.0
08/11:00am 19.8 - - - - SSW 28 43 15 23 1018.0 1017.3 0.0
08/10:30am 20.1 - - - - SSW 24 33 13 18 1018.0 1017.3 0.0
08/10:00am 18.6 - - - - SSW 24 35 13 19 1017.8 1017.1 0.0
08/09:30am 19.3 - - - - SW 32 43 17 23 1017.6 1016.9 0.0
08/09:00am 18.6 - - - - SSW 28 35 15 19 1017.5 1016.8 0.2
08/08:30am 19.0 - - - - SW 20 32 11 17 1017.2 1016.5 0.2
08/08:00am 17.9 - - - - SW 22 30 12 16 1017.1 1016.4 0.2
08/07:30am 17.6 - - - - SW 20 32 11 17 1016.8 1016.1 0.2
08/07:00am 17.1 - - - - SW 19 26 10 14 1016.3 1015.6 0.2
08/06:30am 16.6 - - - - WSW 15 20 8 11 1016.0 1015.3 0.2
08/06:00am 15.5 - - - - WSW 13 19 7 10 1015.5 1014.7 0.2
08/05:30am 14.6 - - - - SW 15 19 8 10 1015.3 1014.5 0.2
08/05:00am 14.0 - - - - WSW 11 13 6 7 1014.7 1014.0 0.2
08/04:30am 14.6 - - - - SW 9 13 5 7 1014.4 1013.7 0.2
08/04:00am 14.3 - - - - W 13 15 7 8 1013.9 1013.2 0.2
08/03:30am 14.6 - - - - WSW 13 17 7 9 1013.7 1013.0 0.2
08/03:00am 15.7 - - - - SW 17 20 9 11 1013.3 1012.6 0.2
08/02:30am 15.8 - - - - SSW 15 19 8 10 1013.1 1012.4 0.2
08/02:00am 16.0 - - - - SSW 11 17 6 9 1013.0 1012.3 0.2
08/01:30am 16.0 - - - - WSW 6 13 3 7 1012.9 1012.2 0.2
08/01:00am 15.3 - - - - WSW 4 6 2 3 1012.8 1012.1 0.2
08/12:30am 15.3 - - - - WSW 7 9 4 5 1012.7 1012.0 0.2
08/12:00am 13.5 - - - - WSW 7 9 4 5 1012.8 1012.1 0.2
 
Date/Time
WST
Temp
°C
App
Temp
°C
Dew
Point
°C
Rel
Hum
%
Delta-T
°C
Wind Press
QNH
hPa
Press
MSL
hPa
Rain since
9am
mm
Dir  Spd
km/h
Gust
km/h
Spd
kts
Gust
kts
07/11:30pm 14.1 - - - - WSW 6 6 3 3 1012.9 1012.2 0.2
07/11:00pm 14.7 - - - - SW 4 6 2 3 1012.7 1012.0 0.2
07/10:30pm 15.2 - - - - SSW 6 6 3 3 1012.6 1011.9 0.2
07/10:00pm 14.9 - - - - SSW 6 7 3 4 1012.5 1011.8 0.2
07/09:30pm 15.7 - - - - CALM 0 0 0 0 1012.2 1011.5 0.2
07/09:00pm 16.2 - - - - S 4 6 2 3 1011.9 1011.2 0.2
07/08:30pm 16.6 - - - - S 7 11 4 6 1011.4 1010.6 0.2
07/08:00pm 17.1 - - - - SSW 13 19 7 10 1010.8 1010.0 0.2
07/07:30pm 17.5 - - - - S 9 13 5 7 1010.3 1009.5 0.2
07/07:00pm 18.1 - - - - SSW 15 20 8 11 1009.7 1009.0 0.2
07/06:30pm 18.6 - - - - SSW 22 30 12 16 1009.2 1008.5 0.2
07/06:00pm 19.2 - - - - SSW 32 43 17 23 1008.5 1007.8 0.2
07/05:30pm 20.2 - - - - SSW 39 50 21 27 1007.9 1007.2 0.2
07/05:00pm 22.6 - - - - SSW 44 57 24 31 1007.1 1006.3 0.2
07/04:30pm 23.6 - - - - SSW 46 59 25 32 1006.2 1005.4 0.2
07/04:20pm 24.9 - - - - SW 52 70 28 38 1005.2 1004.5 0.2
07/04:17pm 25.2 - - - - SW 56 70 30 38 1005.0 1004.3 0.2
07/04:07pm 30.2 - - - - WSW 52 80 28 43 1004.2 1003.5 0.2
07/04:05pm 30.7 - - - - W 50 80 27 43 1003.7 1003.0 0.2
07/04:04pm 32.1 - - - - W 48 80 26 43 1003.6 1002.8 0.2
07/04:00pm 35.3 - - - - W 41 59 22 32 1003.4 1002.6 0.2
07/03:30pm 35.9 - - - - WNW 30 59 16 32 1003.1 1002.3 0.2
07/03:13pm 36.5 - - - - WNW 33 54 18 29 1003.1 1002.3 0.2
07/03:00pm 36.4 - - - - W 35 48 19 26 1003.0 1002.2 0.2
07/02:38pm 36.7 - - - - WNW 33 57 18 31 1002.9 1002.1 0.2
07/02:33pm 36.8 - - - - WNW 32 52 17 28 1002.9 1002.1 0.2
07/02:30pm 37.3 - - - - WNW 33 52 18 28 1003.0 1002.2 0.2
07/02:04pm 37.8 - - - - WNW 30 48 16 26 1003.0 1002.2 0.2
07/02:00pm 37.8 - - - - WNW 33 48 18 26 1003.1 1002.3 0.2
07/01:58pm 37.3 - - - - WNW 30 48 16 26 1003.1 1002.3 0.2
07/01:30pm 36.9 - - - - WNW 28 43 15 23 1003.5 1002.7 0.2
07/01:05pm 37.1 - - - - NW 28 48 15 26 1003.9 1003.2 0.2
07/01:00pm 36.8 - - - - NW 26 48 14 26 1003.9 1003.2 0.2
07/12:30pm 36.1 - - - - NW 26 43 14 23 1004.1 1003.4 0.2
07/12:00pm 35.1 - - - - NW 17 30 9 16 1004.5 1003.8 0.2
07/11:30am 34.5 - - - - W 11 24 6 13 1005.2 1004.5 0.2
07/11:00am 33.4 - - - - E 6 20 3 11 1005.8 1005.0 0.2
07/10:30am 30.6 - - - - W 9 13 5 7 1006.3 1005.5 0.2
07/10:00am 29.1 - - - - WNW 7 13 4 7 1006.8 1006.0 0.2
07/09:30am 28.2 - - - - W 13 20 7 11 1006.8 1006.0 0.0
07/09:00am 26.9 - - - - W 11 15 6 8 1006.8 1006.0 0.0
07/08:30am 25.4 - - - - SSW 7 13 4 7 1007.0 1006.2 0.0
07/08:00am 23.0 - - - - SSE 6 7 3 4 1007.4 1006.6 0.0
07/07:30am 22.1 - - - - SSE 7 13 4 7 1007.8 1007.1 0.0
07/07:00am 24.5 - - - - W 6 20 3 11 1007.4 1006.6 0.0
07/06:30am 26.2 - - - - NNW 7 11 4 6 1006.5 1005.7 0.0
07/06:00am 25.5 - - - - N 7 9 4 5 1006.0 1005.2 0.0
07/05:30am 24.9 - - - - N 7 11 4 6 1006.6 1005.8 0.0
07/05:00am 23.7 - - - - N 7 13 4 7 1006.9 1006.1 0.0
07/04:30am 20.7 - - - - NNE 13 19 7 10 1007.5 1006.7 0.0
07/04:00am 20.1 - - - - NW 6 9 3 5 1007.0 1006.2 0.0
07/03:30am 20.7 - - - - E 13 15 7 8 1006.4 1005.6 0.0
07/03:00am 19.5 - - - - E 9 15 5 8 1005.9 1005.1 0.0
07/02:30am 18.6 - - - - SSE 7 15 4 8 1006.3 1005.5 0.0
07/02:00am 18.7 - - - - WSW 17 26 9 14 1006.8 1006.0 0.0
07/01:30am 18.9 - - - - SSE 6 9 3 5 1005.8 1005.0 0.0
07/01:00am 18.8 - - - - SW 11 19 6 10 1006.7 1005.9 0.0
07/12:30am 19.0 - - - - WSW 19 24 10 13 1006.9 1006.1 0.0
07/12:00am 21.9 - - - - WNW 15 26 8 14 1006.5 1005.7 0.0
 
Date/Time
WST
Temp
°C
App
Temp
°C
Dew
Point
°C
Rel
Hum
%
Delta-T
°C
Wind Press
QNH
hPa
Press
MSL
hPa
Rain since
9am
mm
Dir  Spd
km/h
Gust
km/h
Spd
kts
Gust
kts
06/11:30pm 24.1 - - - - ENE 24 30 13 16 1005.7 1004.9 0.0

Other formats

Comma delimited format used in spreadsheet applications
http://www.bom.gov.au/fwo/IDW60801/IDW60801.95644.axf

JavaScript Object Notation format (JSON) in row-major order
http://www.bom.gov.au/fwo/IDW60801/IDW60801.95644.json

Data quality

Most of these data are generated automatically and are frequently updated. Quality checks on data are not normally performed. It is possible for incorrect values to appear. Refer to information at About Latest Weather Observations and please check the disclaimer before using these data.